Aberford, United Kingdom
Current Conditions -  °F | °C
As of 9:50 AM on Thursday 29 Jan 2015 (Local Time) from EGNM Reporting Station
Snow Showers Snow Showers  
Wind Chill: -5°   Ceiling: Unl
Heat Index:   Visibility: 3mi
Dew Point:   Wind: 13mph
Humidity: 100%   Direction: 270°W
Pressure: 28.88"   Gusts: NA
Location:  53.83°N, 1.34°W
Report Text: EGNM 290950Z 27011KT 240V310 5000 -SHSN FEW004 SCT009 00/M00 Q0978
Loading
Personal Weather Stations






























Interactive Weather Map New forecast layout! Learn more

10-Day Weather Forecast

Advertisements
Track Severe Weather on mobile